M/V Bugra Tomba — TCEJ — position and weather

sailwx.info

Track history (hours):
 
Tides and Currents Weather Stations Pressure Air Temp Water Temp Dewpoint Dewpoint Depression Visibility Wind Speed Wind Dir Waves Ship Positions

M/V Bugra Tomba

Last reported at 2014-Jul-27 20:25 UTC. Time now 2014-Aug-01 03:53 UTC.
Position N 43°47' E 035°50'.

Length 88 m; draft 6 m.

Type: Ship. MMSI: 271000025.

Date/timePositionNaut miles runAvg speedWind from/ knotsBaromVisibWave heightAir tempDewpointWater temp
2014-Jul-27 20:25N 43°47' E 035°50'8 9.1
2014-Jul-27 19:33N 43°50' E 035°59'9 9.0
2014-Jul-27 18:33N 43°55' E 036°10'9 8.9
2014-Jul-27 17:31N 43°60' E 036°21'  
2014-Jul-24 09:33N 44°39' E 037°54'30 1.5
2014-Jul-23 13:12N 44°20' E 037°21'98 9.8
2014-Jul-23 03:17N 43°38' E 035°19'10 9.8
2014-Jul-23 02:17N 43°34' E 035°07'8 9.8
2014-Jul-23 01:25N 43°30' E 034°56'8 9.8
2014-Jul-23 00:33N 43°27' E 034°46'  
2014-Jul-19 11:33N 40°52' E 029°11'0 0.0
2014-Jul-19 10:33N 40°52' E 029°11'  
Track history (hours):
 
Tides and Currents Weather Stations Pressure Air Temp Water Temp Dewpoint Dewpoint Depression Visibility Wind Speed Wind Dir Waves Ship Positions

M/V Bugra Tomba

Last reported at 2014-Jul-27 20:25 UTC. Time now 2014-Aug-01 03:53 UTC.
Position N 43°47' E 035°50'.

Length 88 m; draft 6 m.

Type: Ship. MMSI: 271000025.

Date/timePositionNaut miles runAvg speedWind from/ knotsBaromVisibWave heightAir tempDewpointWater temp
2014-Jul-27 20:25N 43°47' E 035°50'8 9.1
2014-Jul-27 19:33N 43°50' E 035°59'9 9.0
2014-Jul-27 18:33N 43°55' E 036°10'9 8.9
2014-Jul-27 17:31N 43°60' E 036°21'  
2014-Jul-24 09:33N 44°39' E 037°54'30 1.5
2014-Jul-23 13:12N 44°20' E 037°21'98 9.8
2014-Jul-23 03:17N 43°38' E 035°19'10 9.8
2014-Jul-23 02:17N 43°34' E 035°07'8 9.8
2014-Jul-23 01:25N 43°30' E 034°56'8 9.8
2014-Jul-23 00:33N 43°27' E 034°46'  
2014-Jul-19 11:33N 40°52' E 029°11'0 0.0
2014-Jul-19 10:33N 40°52' E 029°11'  

Dump ship's entire track history